Portada
METAR-TAF:

METAR-TAF

Aeropuertos :

Base Naval de Rota

Rota, España

latitud: 36-39N, longitud: 006-21W, altitud: 26 m

Observación

El informe se hizo hace 23 minutos, a las 22:00 UTC
Viento 1 kt con dirección variable
Temperatura 18°C
Humedad 83%
Presión 1018 hPa
Visibilidad 10 km o más
sin nubes por debajo de 1500 m y sin presencia de cumulonimbus.

METAR: LERT 062200Z VRB01KT CAVOK 18/15 Q1018 NOSIG

Hora: 00:23 (22:23 UTC)

Pronóstico

El informe se hizo hace 2 horas y 23 minutos, a las 20:00 UTC
Pronóstico válido del 06 a las 21 UTC al 07 a las 21 UTC
Viento 9 kt del oeste-noroeste
Visibilidad 10 km o más
sin nubes por debajo de 1500 m y sin presencia de cumulonimbus.

TAF: LERT 062000Z 0621/0721 30009KT CAVOK TX29/0712Z TN14/0706Z

Observaciones y pronósticos meteorológicos de más de 4000 aeropuertos (mensajes METAR y TAF).

Los puntos amarillos y rojos representan las estaciones disponibles.

Ponga el ratón en el punto deseado para ver el nombre de la estación.

Haga clic para ver las observaciones y los pronósticos meteorológicos.

Para cambiar el mapa : haga clic en los botones verdes con una cruz de color negro para hacer un zoom, en el botón verde con un guión para alejar o en las flechas verdes para mapas adyacentes.


METAR-TAF: